PWSweather.com
Personal Weather Stations
Station Observations
STPETERS
BroadstairsGB

BroadstairsGB

Lat: 51.37, Lon: 1.423

Elevation: 141

Station Type: WH1081

Latest ConditionsUpdated 10:00:02 AM GMT Friday, May 29, 2015
Currently Today's Max Today's Min Today's Average
Temperature 60.3°F15.7°C 60.3°F15.7°C 50.5°F10.3°C 53.5°F11.9°C
Dew Point 45.9°F7.7°C 46.0°F7.8°C 40.9°F4.9°C 42.7°F5.9°C
Winds 11.8 mph WSW19.0 kmh WSW 13.7 mph SW22.0 kmh SW - 7.4 mph 11.9 kmh
Wind Gusts 19.0 mph30.6 kmh 22.1 mph35.6 kmh - -
Humidity 59% 72% 59% 67%
Pressure 29.79 in1008.8 mb 29.95 in1014.2 mb 29.79 in1008.8 mb -
Hour Temp Dew Point Humidity Winds Wind Gusts Pressure Precip Precip Rate Daily Precip Total
10:00 AM 60.3°F15.7°C 45.9°F7.7°C 59% 11.8 mph WSW19.0 kmh WSW 19.0 mph30.6 kmh 29.79 in1008.8 mb 0.00 in0.0 mm 0.00 in0.0 mm 0.00 in0.0 mm
09:45 AM 59.5°F15.3°C 45.2°F7.3°C 59% 13.7 mph SW22.0 kmh SW 17.4 mph28.0 kmh 29.80 in1009.1 mb 0.00 in0.0 mm 0.00 in0.0 mm 0.00 in0.0 mm
09:30 AM 58.5°F14.7°C 45.1°F7.3°C 61% 10.8 mph WSW17.4 kmh WSW 19.0 mph30.6 kmh 29.81 in1009.5 mb 0.00 in0.0 mm 0.00 in0.0 mm 0.00 in0.0 mm
09:15 AM 58.1°F14.5°C 44.3°F6.8°C 60% 13.5 mph W21.7 kmh W 19.0 mph30.6 kmh 29.82 in1009.8 mb 0.00 in0.0 mm 0.00 in0.0 mm 0.00 in0.0 mm
09:00 AM 59.0°F15.0°C 46.0°F7.8°C 62% 12.7 mph SSW20.4 kmh SSW 17.4 mph28.0 kmh 29.83 in1010.2 mb 0.00 in0.0 mm 0.00 in0.0 mm 0.00 in0.0 mm
08:45 AM 57.4°F14.1°C 44.5°F6.9°C 62% 12.2 mph S19.6 kmh S 19.7 mph31.7 kmh 29.83 in1010.2 mb 0.00 in0.0 mm 0.00 in0.0 mm 0.00 in0.0 mm
08:30 AM 57.0°F13.9°C 43.7°F6.5°C 61% 12.9 mph SSW20.8 kmh SSW 20.6 mph33.2 kmh 29.83 in1010.2 mb 0.00 in0.0 mm 0.00 in0.0 mm 0.00 in0.0 mm
08:15 AM 56.3°F13.5°C 42.6°F5.9°C 60% 11.6 mph SW18.7 kmh SW 15.9 mph25.6 kmh 29.84 in1010.5 mb 0.00 in0.0 mm 0.00 in0.0 mm 0.00 in0.0 mm
08:00 AM 57.2°F14.0°C 43.0°F6.1°C 59% 11.1 mph SSW17.9 kmh SSW 15.2 mph24.5 kmh 29.84 in1010.5 mb 0.00 in0.0 mm 0.00 in0.0 mm 0.00 in0.0 mm
07:45 AM 56.5°F13.6°C 43.2°F6.2°C 61% 12.3 mph W19.8 kmh W 17.4 mph28.0 kmh 29.85 in1010.8 mb 0.00 in0.0 mm 0.00 in0.0 mm 0.00 in0.0 mm
07:30 AM 55.9°F13.3°C 43.1°F6.2°C 62% 11.4 mph SW18.3 kmh SW 22.1 mph35.6 kmh 29.86 in1011.2 mb 0.00 in0.0 mm 0.00 in0.0 mm 0.00 in0.0 mm
07:15 AM 54.9°F12.7°C 42.9°F6.1°C 64% 10.6 mph SW17.1 kmh SW 17.4 mph28.0 kmh 29.86 in1011.2 mb 0.00 in0.0 mm 0.00 in0.0 mm 0.00 in0.0 mm
07:00 AM 54.3°F12.4°C 43.6°F6.4°C 67% 8.2 mph SW13.2 kmh SW 13.6 mph21.9 kmh 29.87 in1011.5 mb 0.00 in0.0 mm 0.00 in0.0 mm 0.00 in0.0 mm
06:45 AM 53.6°F12.0°C 43.7°F6.5°C 69% 7.4 mph WSW11.9 kmh WSW 10.7 mph17.2 kmh 29.87 in1011.5 mb 0.00 in0.0 mm 0.00 in0.0 mm 0.00 in0.0 mm
06:30 AM 52.5°F11.4°C 43.0°F6.1°C 70% 7.3 mph WSW11.7 kmh WSW 9.8 mph15.8 kmh 29.87 in1011.5 mb 0.00 in0.0 mm 0.00 in0.0 mm 0.00 in0.0 mm
06:15 AM 52.2°F11.2°C 43.1°F6.2°C 71% 6.5 mph SW10.5 kmh SW 10.7 mph17.2 kmh 29.88 in1011.9 mb 0.00 in0.0 mm 0.00 in0.0 mm 0.00 in0.0 mm
06:00 AM 51.6°F10.9°C 42.5°F5.8°C 71% 6.8 mph WSW10.9 kmh WSW 9.8 mph15.8 kmh 29.87 in1011.5 mb 0.00 in0.0 mm 0.00 in0.0 mm 0.00 in0.0 mm
05:45 AM 51.3°F10.7°C 42.2°F5.7°C 71% 7.3 mph WSW11.7 kmh WSW 9.8 mph15.8 kmh 29.88 in1011.9 mb 0.00 in0.0 mm 0.00 in0.0 mm 0.00 in0.0 mm
05:30 AM 50.9°F10.5°C 41.8°F5.4°C 71% 6.3 mph WSW10.1 kmh WSW 9.2 mph14.8 kmh 29.88 in1011.9 mb 0.00 in0.0 mm 0.00 in0.0 mm 0.00 in0.0 mm
05:15 AM 50.9°F10.5°C 41.5°F5.3°C 70% 6.3 mph SW10.1 kmh SW 7.6 mph12.2 kmh 29.88 in1011.9 mb 0.00 in0.0 mm 0.00 in0.0 mm 0.00 in0.0 mm
05:00 AM 50.5°F10.3°C 41.1°F5.1°C 70% 6.9 mph SW11.1 kmh SW 8.3 mph13.4 kmh 29.89 in1012.2 mb 0.00 in0.0 mm 0.00 in0.0 mm 0.00 in0.0 mm
04:45 AM 50.5°F10.3°C 41.1°F5.1°C 70% 6.4 mph SW10.3 kmh SW 9.2 mph14.8 kmh 29.89 in1012.2 mb 0.00 in0.0 mm 0.00 in0.0 mm 0.00 in0.0 mm
04:30 AM 50.5°F10.3°C 41.1°F5.1°C 70% 7.0 mph WSW11.3 kmh WSW 9.2 mph14.8 kmh 29.89 in1012.2 mb 0.00 in0.0 mm 0.00 in0.0 mm 0.00 in0.0 mm
04:15 AM 50.7°F10.4°C 41.3°F5.2°C 70% 7.0 mph SW11.3 kmh SW 9.2 mph14.8 kmh 29.89 in1012.2 mb 0.00 in0.0 mm 0.00 in0.0 mm 0.00 in0.0 mm
04:00 AM 50.7°F10.4°C 40.9°F4.9°C 69% 6.1 mph SW9.8 kmh SW 8.3 mph13.4 kmh 29.89 in1012.2 mb 0.00 in0.0 mm 0.00 in0.0 mm 0.00 in0.0 mm
03:45 AM 50.9°F10.5°C 41.1°F5.1°C 69% 5.8 mph WSW9.3 kmh WSW 8.3 mph13.4 kmh 29.89 in1012.2 mb 0.00 in0.0 mm 0.00 in0.0 mm 0.00 in0.0 mm
03:30 AM 51.1°F10.6°C 41.3°F5.2°C 69% 5.2 mph WSW8.4 kmh WSW 7.6 mph12.2 kmh 29.89 in1012.2 mb 0.00 in0.0 mm 0.00 in0.0 mm 0.00 in0.0 mm
03:15 AM 51.3°F10.7°C 41.4°F5.2°C 69% 5.5 mph SW8.9 kmh SW 8.3 mph13.4 kmh 29.90 in1012.5 mb 0.00 in0.0 mm 0.00 in0.0 mm 0.00 in0.0 mm
03:00 AM 51.4°F10.8°C 41.2°F5.1°C 68% 5.3 mph WSW8.5 kmh WSW 7.6 mph12.2 kmh 29.90 in1012.5 mb 0.00 in0.0 mm 0.00 in0.0 mm 0.00 in0.0 mm
02:45 AM 51.6°F10.9°C 41.4°F5.2°C 68% 4.6 mph SW7.4 kmh SW 6.9 mph11.1 kmh 29.91 in1012.9 mb 0.00 in0.0 mm 0.00 in0.0 mm 0.00 in0.0 mm
02:30 AM 51.8°F11.0°C 41.6°F5.3°C 68% 3.8 mph SW6.1 kmh SW 8.3 mph13.4 kmh 29.91 in1012.9 mb 0.00 in0.0 mm 0.00 in0.0 mm 0.00 in0.0 mm
02:15 AM 51.8°F11.0°C 42.0°F5.6°C 69% 4.0 mph WSW6.4 kmh WSW 4.5 mph7.2 kmh 29.91 in1012.9 mb 0.00 in0.0 mm 0.00 in0.0 mm 0.00 in0.0 mm
02:00 AM 52.0°F11.1°C 42.1°F5.6°C 69% 4.2 mph W6.8 kmh W 6.0 mph9.7 kmh 29.92 in1013.2 mb 0.00 in0.0 mm 0.00 in0.0 mm 0.00 in0.0 mm
01:45 AM 51.8°F11.0°C 42.0°F5.6°C 69% 3.5 mph WSW5.6 kmh WSW 5.4 mph8.7 kmh 29.92 in1013.2 mb 0.00 in0.0 mm 0.00 in0.0 mm 0.00 in0.0 mm
01:30 AM 52.2°F11.2°C 41.9°F5.5°C 68% 4.0 mph WSW6.4 kmh WSW 5.4 mph8.7 kmh 29.93 in1013.5 mb 0.00 in0.0 mm 0.00 in0.0 mm 0.00 in0.0 mm
01:15 AM 52.3°F11.3°C 42.1°F5.6°C 68% 2.6 mph W4.2 kmh W 3.8 mph6.1 kmh 29.93 in1013.5 mb 0.00 in0.0 mm 0.00 in0.0 mm 0.00 in0.0 mm
01:00 AM 52.3°F11.3°C 42.5°F5.8°C 69% 3.4 mph WSW5.5 kmh WSW 6.0 mph9.7 kmh 29.93 in1013.5 mb 0.00 in0.0 mm 0.00 in0.0 mm 0.00 in0.0 mm
12:45 AM 52.5°F11.4°C 42.7°F5.9°C 69% 3.9 mph WSW6.3 kmh WSW 8.3 mph13.4 kmh 29.94 in1013.9 mb 0.00 in0.0 mm 0.00 in0.0 mm 0.00 in0.0 mm
12:30 AM 52.7°F11.5°C 43.2°F6.2°C 70% 3.5 mph WSW5.6 kmh WSW 5.4 mph8.7 kmh 29.95 in1014.2 mb 0.00 in0.0 mm 0.00 in0.0 mm 0.00 in0.0 mm
12:15 AM 52.7°F11.5°C 43.6°F6.4°C 71% 4.8 mph W7.7 kmh W 9.8 mph15.8 kmh 29.95 in1014.2 mb 0.00 in0.0 mm 0.00 in0.0 mm 0.00 in0.0 mm
12:00 AM 52.9°F11.6°C 44.1°F6.7°C 72% 5.2 mph WSW8.4 kmh WSW 6.9 mph11.1 kmh 29.95 in1014.2 mb 0.00 in0.0 mm 0.00 in0.0 mm 0.00 in0.0 mm